createdAt,value
2016-05-28T00:00:56.644Z,91.2
2016-05-28T00:01:56.788Z,91.2
2016-05-28T00:02:56.760Z,91.3
2016-05-28T00:03:56.731Z,91.49
2016-05-28T00:04:57.202Z,91.3
2016-05-28T00:05:56.690Z,91.39
2016-05-28T00:06:56.676Z,91.97
2016-05-28T00:07:56.649Z,91.77
2016-05-28T00:08:56.635Z,92.3
2016-05-28T00:09:56.606Z,92.16
2016-05-28T00:10:56.594Z,91.87
2016-05-28T00:11:56.581Z,92.69
2016-05-28T00:12:56.552Z,92.59
2016-05-28T00:13:56.368Z,91.73
2016-05-28T00:14:56.526Z,91.63
2016-05-28T00:15:56.498Z,92.78
2016-05-28T00:16:56.469Z,92.4
2016-05-28T00:17:56.440Z,92.4
2016-05-28T00:18:56.272Z,92.69
2016-05-28T00:19:58.181Z,92.49
2016-05-28T00:20:56.386Z,92.97
2016-05-28T00:21:56.373Z,93.07
2016-05-28T00:22:56.345Z,93.45
2016-05-28T00:23:56.317Z,93.16
2016-05-28T00:24:56.303Z,93.16
2016-05-28T00:25:56.290Z,93.45
2016-05-28T00:26:56.262Z,93.55
2016-05-28T00:27:56.233Z,93.55
2016-05-28T00:28:56.220Z,93.26
2016-05-28T00:29:56.208Z,93.69
2016-05-28T00:30:56.179Z,93.45
2016-05-28T00:31:56.182Z,93.98
2016-05-28T00:32:56.138Z,94.17
2016-05-28T00:33:56.124Z,93.79
2016-05-28T00:34:56.096Z,94.36
2016-05-28T00:35:55.927Z,94.07
2016-05-28T00:36:56.055Z,94.65
2016-05-28T00:37:56.026Z,94.84
2016-05-28T00:38:56.013Z,94.55
2016-05-28T00:39:55.828Z,94.46
2016-05-28T00:40:55.971Z,95.41
2016-05-28T00:41:55.943Z,95.41
2016-05-28T00:42:55.930Z,95.51
2016-05-28T00:43:55.901Z,95.79
2016-05-28T00:44:55.888Z,95.89
2016-05-28T00:45:55.860Z,96.47
2016-05-28T00:46:55.676Z,96.66
2016-05-28T00:47:55.818Z,97.9
2016-05-28T00:48:55.806Z,97.61
2016-05-28T00:49:55.620Z,97.52
2016-05-28T00:50:55.748Z,98.09
2016-05-28T00:51:55.751Z,97.8
2016-05-28T00:52:55.722Z,97.61
2016-05-28T00:53:55.694Z,97.61
2016-05-28T00:54:55.525Z,97.42
2016-05-28T00:55:55.652Z,97.04
2016-05-28T00:56:55.625Z,97.13
2016-05-28T00:57:55.611Z,97.33
2016-05-28T00:58:55.582Z,97.04
2016-05-28T00:59:55.570Z,96.94
2016-05-28T01:00:55.541Z,97.33
2016-05-28T01:01:55.527Z,97.42
2016-05-28T01:02:55.499Z,96.75
2016-05-28T01:03:55.486Z,96.66
2016-05-28T01:04:55.489Z,96.94
2016-05-28T01:05:55.444Z,96.56
2016-05-28T01:06:55.416Z,97.04
2016-05-28T01:07:55.388Z,96.66
2016-05-28T01:08:55.407Z,96.94
2016-05-28T01:09:55.363Z,96.75
2016-05-28T01:10:55.379Z,97.04
2016-05-28T01:11:55.367Z,96.47
2016-05-28T01:12:55.229Z,96.75
2016-05-28T01:13:55.388Z,96.84
2016-05-28T01:14:55.250Z,96.84
2016-05-28T01:15:55.238Z,96.94
2016-05-28T01:16:55.209Z,96.75
2016-05-28T01:17:55.181Z,97.04
2016-05-28T01:18:55.151Z,96.84
2016-05-28T01:19:55.857Z,96.66
2016-05-28T01:20:54.970Z,97.13
2016-05-28T01:21:55.097Z,96.66
2016-05-28T01:22:55.084Z,96.27
2016-05-28T01:23:55.056Z,96.75
2016-05-28T01:24:55.042Z,96.47
2016-05-28T01:25:55.014Z,96.47
2016-05-28T01:26:54.829Z,96.56
2016-05-28T01:27:54.973Z,96.75
2016-05-28T01:28:54.945Z,96.27
2016-05-28T01:29:54.931Z,95.98
2016-05-28T01:30:54.903Z,96.18
2016-05-28T01:31:54.889Z,96.47
2016-05-28T01:32:54.861Z,97.13
2016-05-28T01:33:54.849Z,96.56
2016-05-28T01:34:54.819Z,97.04
2016-05-28T01:35:54.807Z,96.61
2016-05-28T01:36:54.794Z,97.08
2016-05-28T01:37:54.749Z,97.13
2016-05-28T01:38:54.737Z,97.28
2016-05-28T01:39:54.723Z,96.8
2016-05-28T01:40:54.696Z,97.18
2016-05-28T01:41:54.666Z,96.8
2016-05-28T01:42:54.654Z,96.42
2016-05-28T01:43:54.641Z,96.22
2016-05-28T01:44:54.456Z,97.18
2016-05-28T01:45:54.599Z,96.99
2016-05-28T01:46:54.587Z,96.7
2016-05-28T01:47:54.542Z,96.99
2016-05-28T01:48:54.529Z,96.22
2016-05-28T01:49:54.360Z,96.61
2016-05-28T01:50:54.487Z,96.32
2016-05-28T01:51:54.459Z,96.42
2016-05-28T01:52:54.445Z,96.32
2016-05-28T01:53:54.417Z,95.84
2016-05-28T01:54:54.405Z,95.84
2016-05-28T01:55:54.376Z,95.94
2016-05-28T01:56:54.364Z,96.03
2016-05-28T01:57:54.334Z,95.65
2016-05-28T01:58:54.322Z,95.75
2016-05-28T01:59:54.294Z,96.22
2016-05-28T02:00:54.280Z,96.32
2016-05-28T02:01:54.252Z,96.32
2016-05-28T02:02:54.238Z,95.84
2016-05-28T02:03:54.210Z,95.75
2016-05-28T02:04:54.119Z,95.94
2016-05-28T02:05:54.169Z,95.94
2016-05-28T02:06:54.156Z,95.94
2016-05-28T02:07:54.143Z,95.94
2016-05-28T02:08:54.114Z,95.75
2016-05-28T02:09:53.930Z,95.56
2016-05-28T02:10:54.058Z,96.13
2016-05-28T02:11:54.044Z,95.84
2016-05-28T02:12:54.031Z,95.94
2016-05-28T02:13:54.018Z,96.22
2016-05-28T02:14:53.990Z,96.03
2016-05-28T02:15:53.962Z,95.75
2016-05-28T02:16:53.948Z,96.03
2016-05-28T02:17:53.920Z,96.32
2016-05-28T02:18:53.890Z,96.42
2016-05-28T02:19:53.894Z,95.94
2016-05-28T02:20:53.865Z,96.03
2016-05-28T02:21:53.836Z,96.13
2016-05-28T02:22:53.809Z,96.22
2016-05-28T02:23:53.795Z,97.08
2016-05-28T02:24:53.767Z,96.61
2016-05-28T02:25:53.754Z,97.08
2016-05-28T02:26:53.725Z,97.08
2016-05-28T02:27:53.744Z,97.08
2016-05-28T02:28:53.684Z,97.18
2016-05-28T02:29:53.670Z,97.08
2016-05-28T02:30:53.642Z,96.8
2016-05-28T02:31:53.630Z,97.18
2016-05-28T02:32:53.616Z,97.28
2016-05-28T02:33:53.588Z,97.08
2016-05-28T02:34:53.574Z,97.18
2016-05-28T02:35:53.546Z,97.18
2016-05-28T02:36:53.519Z,97.08
2016-05-28T02:37:53.505Z,97.08
2016-05-28T02:38:53.477Z,96.8
2016-05-28T02:39:53.463Z,96.89
2016-05-28T02:40:53.435Z,97.28
2016-05-28T02:41:53.249Z,97.37
2016-05-28T02:42:53.394Z,96.89
2016-05-28T02:43:53.380Z,97.18
2016-05-28T02:44:53.351Z,97.37
2016-05-28T02:45:53.355Z,97.37
2016-05-28T02:46:53.310Z,97.56
2016-05-28T02:47:53.282Z,97.56
2016-05-28T02:48:53.268Z,97.37
2016-05-28T02:49:53.646Z,97.37
2016-05-28T02:50:53.227Z,97.75
2016-05-28T02:51:53.215Z,97.47
2016-05-28T02:52:53.187Z,97.42
2016-05-28T02:53:53.172Z,97.56
2016-05-28T02:54:53.144Z,97.61
2016-05-28T02:55:53.115Z,97.61
2016-05-28T02:56:53.103Z,97.42
2016-05-28T02:57:53.089Z,97.8
2016-05-28T02:58:53.061Z,96.99
2016-05-28T02:59:53.033Z,97.13
2016-05-28T03:00:53.019Z,97.71
2016-05-28T03:01:52.992Z,96.94
2016-05-28T03:02:52.978Z,97.04
2016-05-28T03:03:52.950Z,97.9
2016-05-28T03:04:52.952Z,97.13
2016-05-28T03:05:52.905Z,97.04
2016-05-28T03:06:52.892Z,97.61
2016-05-28T03:07:52.863Z,97.8
2016-05-28T03:08:52.852Z,97.42
2016-05-28T03:09:52.838Z,97.42
2016-05-28T03:10:52.810Z,97.71
2016-05-28T03:11:52.781Z,97.61
2016-05-28T03:12:52.769Z,97.61
2016-05-28T03:13:52.740Z,97.71
2016-05-28T03:14:52.727Z,97.23
2016-05-28T03:15:52.713Z,97.61
2016-05-28T03:16:52.685Z,97.61
2016-05-28T03:17:52.671Z,97.42
2016-05-28T03:18:52.629Z,97.42
2016-05-28T03:19:53.021Z,97.71
2016-05-28T03:20:52.602Z,97.9
2016-05-28T03:21:52.573Z,97.8
2016-05-28T03:22:52.560Z,97.61
2016-05-28T03:23:52.548Z,97.52
2016-05-28T03:24:52.520Z,97.33
2016-05-28T03:25:52.506Z,97.33
2016-05-28T03:26:52.462Z,97.42
2016-05-28T03:27:52.448Z,97.71
2016-05-28T03:28:52.436Z,97.42
2016-05-28T03:29:52.408Z,97.42
2016-05-28T03:30:52.395Z,97.8
2016-05-28T03:31:52.381Z,97.52
2016-05-28T03:32:52.353Z,98.09
2016-05-28T03:33:52.325Z,98.19
2016-05-28T03:34:52.764Z,98.38
2016-05-28T03:35:52.283Z,97.8
2016-05-28T03:36:52.255Z,97.9
2016-05-28T03:37:52.241Z,97.8
2016-05-28T03:38:52.228Z,97.8
2016-05-28T03:39:52.199Z,97.8
2016-05-28T03:40:52.171Z,98
2016-05-28T03:41:52.159Z,98
2016-05-28T03:42:52.146Z,98.09
2016-05-28T03:43:52.116Z,97.8
2016-05-28T03:44:52.089Z,97.9
2016-05-28T03:45:52.076Z,98
2016-05-28T03:46:52.063Z,98
2016-05-28T03:47:52.034Z,97.8
2016-05-28T03:48:52.005Z,98.28
2016-05-28T03:49:51.837Z,98.38
2016-05-28T03:50:51.965Z,97.61
2016-05-28T03:51:51.951Z,97.23
2016-05-28T03:52:51.938Z,97.52
2016-05-28T03:53:51.910Z,97.52
2016-05-28T03:54:51.882Z,97.9
2016-05-28T03:55:51.884Z,97.42
2016-05-28T03:56:51.839Z,97.71
2016-05-28T03:57:51.826Z,97.52
2016-05-28T03:58:51.798Z,97.71
2016-05-28T03:59:51.784Z,97.33
2016-05-28T04:00:51.756Z,97.04
2016-05-28T04:01:51.728Z,97.52
2016-05-28T04:02:51.715Z,97.04
2016-05-28T04:03:51.703Z,96.94
2016-05-28T04:04:51.689Z,97.33
2016-05-28T04:05:51.661Z,97.33
2016-05-28T04:06:51.633Z,97.33
2016-05-28T04:07:51.619Z,96.66
2016-05-28T04:08:51.590Z,96.84
2016-05-28T04:09:51.578Z,97.04
2016-05-28T04:10:51.549Z,96.94
2016-05-28T04:11:51.536Z,97.04
2016-05-28T04:12:51.508Z,97.04
2016-05-28T04:13:51.479Z,97.33
2016-05-28T04:14:51.466Z,96.94
2016-05-28T04:15:51.438Z,96.94
2016-05-28T04:16:51.441Z,96.75
2016-05-28T04:17:51.412Z,96.84
2016-05-28T04:18:51.399Z,96.66
2016-05-28T04:19:51.371Z,96.56
2016-05-28T04:20:51.341Z,96.18
2016-05-28T04:21:51.329Z,96.18
2016-05-28T04:22:51.300Z,96.47
2016-05-28T04:23:51.287Z,96.27
2016-05-28T04:24:51.259Z,95.56
2016-05-28T04:25:51.246Z,96.13
2016-05-28T04:26:51.217Z,96.03
2016-05-28T04:27:51.204Z,96.03
2016-05-28T04:28:51.191Z,95.94
2016-05-28T04:29:51.162Z,95.65
2016-05-28T04:30:51.134Z,95.36
2016-05-28T04:31:51.120Z,95.27
2016-05-28T04:32:51.092Z,95.36
2016-05-28T04:33:51.080Z,95.56
2016-05-28T04:34:51.207Z,95.27
2016-05-28T04:35:51.053Z,95.17
2016-05-28T04:36:51.041Z,95.27
2016-05-28T04:37:51.012Z,95.07
2016-05-28T04:38:50.984Z,95.07
2016-05-28T04:39:50.955Z,94.79
2016-05-28T04:40:50.942Z,94.98
2016-05-28T04:41:50.930Z,94.84
2016-05-28T04:42:50.900Z,94.64
2016-05-28T04:43:50.872Z,94.55
2016-05-28T04:44:50.860Z,94.64
2016-05-28T04:45:50.847Z,94.45
2016-05-28T04:46:50.818Z,94.45
2016-05-28T04:47:50.805Z,93.88
2016-05-28T04:48:50.777Z,94.17
2016-05-28T04:49:50.763Z,93.88
2016-05-28T04:50:50.735Z,93.78
2016-05-28T04:51:50.722Z,94.07
2016-05-28T04:52:50.693Z,94.17
2016-05-28T04:53:50.665Z,93.98
2016-05-28T04:54:50.668Z,93.69
2016-05-28T04:55:50.639Z,93.69
2016-05-28T04:56:50.610Z,93.69
2016-05-28T04:57:50.597Z,93.69
2016-05-28T04:58:50.584Z,93.98
2016-05-28T04:59:50.571Z,94.07
2016-05-28T05:00:50.543Z,94.07
2016-05-28T05:01:50.514Z,94.07
2016-05-28T05:02:50.345Z,93.3
2016-05-28T05:03:50.473Z,93.3
2016-05-28T05:04:50.459Z,93.59
2016-05-28T05:05:50.431Z,93.59
2016-05-28T05:06:50.418Z,92.82
2016-05-28T05:07:50.389Z,92.49
2016-05-28T05:08:50.387Z,92.58
2016-05-28T05:09:50.382Z,91.86
2016-05-28T05:10:50.394Z,92.2
2016-05-28T05:11:50.405Z,92.34
2016-05-28T05:12:50.432Z,92.05
2016-05-28T05:13:50.407Z,91.86
2016-05-28T05:14:50.388Z,91.57
2016-05-28T05:15:50.383Z,91.19
2016-05-28T05:16:50.363Z,91.19
2016-05-28T05:17:50.360Z,91.19
2016-05-28T05:18:50.354Z,91.38
2016-05-28T05:19:50.359Z,91
2016-05-28T05:20:50.333Z,91.14
2016-05-28T05:21:50.308Z,90.85
2016-05-28T05:22:50.283Z,90.47
2016-05-28T05:23:50.272Z,90.08
2016-05-28T05:24:50.089Z,89.12
2016-05-28T05:25:50.233Z,89.61
2016-05-28T05:26:50.221Z,88.84
2016-05-28T05:27:50.194Z,88.17
2016-05-28T05:28:50.181Z,87.78
2016-05-28T05:29:50.153Z,87.49
2016-05-28T05:30:50.140Z,87.59
2016-05-28T05:31:50.144Z,87.54
2016-05-28T05:32:50.116Z,88.11
2016-05-28T05:33:50.103Z,87.82
2016-05-28T05:34:50.074Z,87.82
2016-05-28T05:35:50.045Z,87.82
2016-05-28T05:36:50.018Z,87.25
2016-05-28T05:37:50.020Z,87.01
2016-05-28T05:38:50.023Z,87.01
2016-05-28T05:39:49.978Z,86.33
2016-05-28T05:40:49.996Z,85.95
2016-05-28T05:41:49.953Z,85.57
2016-05-28T05:42:49.924Z,84.99
2016-05-28T05:43:49.895Z,85.57
2016-05-28T05:44:49.882Z,85.37
2016-05-28T05:45:49.870Z,85.32
2016-05-28T05:46:49.842Z,85.51
2016-05-28T05:47:49.828Z,85.03
2016-05-28T05:48:49.814Z,85.13
2016-05-28T05:49:50.646Z,84.17
2016-05-28T05:50:49.617Z,84.21
2016-05-28T05:51:49.761Z,82.96
2016-05-28T05:52:49.733Z,82.29
2016-05-28T05:53:49.563Z,81.13
2016-05-28T05:54:49.706Z,81.04
2016-05-28T05:55:49.693Z,81.04
2016-05-28T05:56:49.665Z,80.17
2016-05-28T05:57:49.652Z,80.21
2016-05-28T05:58:49.467Z,79.73
2016-05-28T05:59:49.611Z,80.21
2016-05-28T06:00:49.597Z,79.82
2016-05-28T06:01:49.585Z,79.15
2016-05-28T06:02:49.555Z,78.42
2016-05-28T06:03:49.559Z,78.42
2016-05-28T06:04:50.249Z,77.75
2016-05-28T06:05:49.518Z,77.26
2016-05-28T06:06:49.332Z,77.11
2016-05-28T06:07:49.490Z,75.76
2016-05-28T06:08:49.462Z,74.55
2016-05-28T06:09:49.435Z,73.05
2016-05-28T06:10:49.437Z,71.64
2016-05-28T06:11:49.423Z,67.07
2016-05-28T06:12:49.395Z,64.79
2016-05-28T06:13:49.398Z,63.08
2016-05-28T06:14:49.370Z,62.05
2016-05-28T06:15:49.340Z,60.72
2016-05-28T06:16:49.343Z,59.4
2016-05-28T06:17:49.175Z,59.31
2016-05-28T06:18:49.334Z,58.37
2016-05-28T06:19:49.305Z,56.94
2016-05-28T06:20:49.276Z,56.07
2016-05-28T06:21:49.264Z,56
2016-05-28T06:22:49.250Z,54.84
2016-05-28T06:23:49.237Z,53.8
2016-05-28T06:24:49.225Z,53.22
2016-05-28T06:25:49.211Z,53.51
2016-05-28T06:26:49.199Z,52.18
2016-05-28T06:27:49.186Z,52.54
2016-05-28T06:28:49.172Z,51.69
2016-05-28T06:29:49.160Z,51.43
2016-05-28T06:30:49.147Z,51.33
2016-05-28T06:31:49.133Z,50.58
2016-05-28T06:32:48.980Z,49.63
2016-05-28T06:33:49.108Z,48.97
2016-05-28T06:34:48.955Z,48.66
2016-05-28T06:35:49.082Z,48.2
2016-05-28T06:36:49.085Z,47.71
2016-05-28T06:37:49.071Z,47.74
2016-05-28T06:38:49.059Z,47.64
2016-05-28T06:39:49.046Z,45.91
2016-05-28T06:40:49.033Z,45.54
2016-05-28T06:41:49.020Z,44.57
2016-05-28T06:42:49.023Z,44.67
2016-05-28T06:43:49.010Z,44.1
2016-05-28T06:44:48.997Z,42.96
2016-05-28T06:45:48.984Z,42.96
2016-05-28T06:46:48.970Z,43.15
2016-05-28T06:47:48.959Z,43.54
2016-05-28T06:48:48.961Z,42.69
2016-05-28T06:49:50.245Z,42.51
2016-05-28T06:50:48.934Z,43.37
2016-05-28T06:51:48.937Z,42.76
2016-05-28T06:52:48.925Z,42.35
2016-05-28T06:53:48.911Z,41.99
2016-05-28T06:54:48.900Z,41.52
2016-05-28T06:55:48.886Z,40.66
2016-05-28T06:56:48.888Z,39.02
2016-05-28T06:57:48.876Z,38.94
2016-05-28T06:58:48.864Z,39.55
2016-05-28T06:59:48.850Z,38.98
2016-05-28T07:00:48.852Z,38.57
2016-05-28T07:01:48.855Z,38.96
2016-05-28T07:02:48.842Z,39.04
2016-05-28T07:03:48.829Z,37.29
2016-05-28T07:04:49.019Z,36.93
2016-05-28T07:05:48.819Z,38.02
2016-05-28T07:06:48.821Z,38.09
2016-05-28T07:07:48.793Z,38.57
2016-05-28T07:08:48.780Z,39.04
2016-05-28T07:09:48.783Z,41.35
2016-05-28T07:10:48.770Z,42.38
2016-05-28T07:11:48.757Z,44.1
2016-05-28T07:12:48.759Z,44.01
2016-05-28T07:13:48.762Z,42.63
2016-05-28T07:14:48.749Z,42.91
2016-05-28T07:15:48.720Z,43.01
2016-05-28T07:16:48.724Z,43.99
2016-05-28T07:17:48.711Z,44.45
2016-05-28T07:18:48.714Z,44.45
2016-05-28T07:19:48.700Z,44.45
2016-05-28T07:20:48.687Z,43.99
2016-05-28T07:21:48.689Z,44.45
2016-05-28T07:22:48.678Z,44.74
2016-05-28T07:23:48.648Z,44.84
2016-05-28T07:24:48.651Z,44.55
2016-05-28T07:25:48.639Z,43.5
2016-05-28T07:26:48.641Z,44.28
2016-05-28T07:27:48.628Z,44.76
2016-05-28T07:28:48.615Z,45.45
2016-05-28T07:29:48.603Z,44.74
2016-05-28T07:30:48.605Z,44.57
2016-05-28T07:31:48.591Z,45.25
2016-05-28T07:32:48.580Z,45.15
2016-05-28T07:33:48.583Z,44.86
2016-05-28T07:34:48.569Z,44.2
2016-05-28T07:35:48.555Z,43.74
2016-05-28T07:36:48.543Z,42.74
2016-05-28T07:37:48.546Z,42.47
2016-05-28T07:38:48.517Z,42.2
2016-05-28T07:39:48.520Z,41.35
2016-05-28T07:40:48.507Z,41.27
2016-05-28T07:41:48.510Z,39.55
2016-05-28T07:42:48.496Z,37.91
2016-05-28T07:43:48.499Z,36.83
2016-05-28T07:44:48.487Z,37.12
2016-05-28T07:45:48.457Z,37.34
2016-05-28T07:46:48.460Z,36.47
2016-05-28T07:47:48.447Z,36.1
2016-05-28T07:48:48.450Z,36.02
2016-05-28T07:49:48.453Z,35.44
2016-05-28T07:50:48.425Z,35.14
2016-05-28T07:51:48.270Z,35.14
2016-05-28T07:52:48.414Z,36.12
2016-05-28T07:53:48.261Z,35.14
2016-05-28T07:54:48.403Z,36.2
2016-05-28T07:55:48.391Z,36.85
2016-05-28T07:56:48.394Z,37.01
2016-05-28T07:57:48.397Z,37.7
2016-05-28T07:58:48.384Z,37.99
2016-05-28T07:59:48.370Z,38.45
2016-05-28T08:00:48.388Z,37.3
2016-05-28T08:01:48.361Z,37.79
2016-05-28T08:02:48.347Z,37.22
2016-05-28T08:03:48.335Z,37.7
2016-05-28T08:04:48.712Z,37.19
2016-05-28T08:05:48.324Z,36.72
2016-05-28T08:06:48.327Z,38.18
2016-05-28T08:07:48.313Z,38.63
2016-05-28T08:08:48.160Z,38.81
2016-05-28T08:09:48.304Z,38.49
2016-05-28T08:10:48.291Z,37.48
2016-05-28T08:11:48.277Z,36.44
2016-05-28T08:12:50.859Z,36.33
2016-05-28T08:13:48.283Z,37.01
2016-05-28T08:14:48.254Z,35.95
2016-05-28T08:15:48.257Z,36.26
2016-05-28T08:16:48.245Z,34.93
2016-05-28T08:17:48.231Z,34.28
2016-05-28T08:18:48.281Z,32.92
2016-05-28T08:19:48.237Z,31.37
2016-05-28T08:20:48.223Z,31.09
2016-05-28T08:21:48.227Z,30.81
2016-05-28T08:22:48.214Z,30.02
2016-05-28T08:23:48.200Z,29.24
2016-05-28T08:24:48.203Z,28.96
2016-05-28T08:25:48.206Z,28.97
2016-05-28T08:26:48.192Z,29.07
2016-05-28T08:27:48.196Z,29.66
2016-05-28T08:28:48.183Z,28.95
2016-05-28T08:29:48.186Z,29.14
2016-05-28T08:30:48.173Z,29.93
2016-05-28T08:31:48.175Z,30.71
2016-05-28T08:32:48.163Z,31.27
2016-05-28T08:33:48.165Z,31.74
2016-05-28T08:34:48.168Z,31.65
2016-05-28T08:35:48.155Z,31.65
2016-05-28T08:36:48.141Z,31.04
2016-05-28T08:37:48.144Z,31.47
2016-05-28T08:38:48.147Z,30.88
2016-05-28T08:39:47.978Z,29.98
2016-05-28T08:40:48.138Z,30.68
2016-05-28T08:41:48.124Z,30.29
2016-05-28T08:42:48.127Z,30.8
2016-05-28T08:43:48.113Z,30.22
2016-05-28T08:44:48.116Z,30.22
2016-05-28T08:45:48.119Z,30.32
2016-05-28T08:46:48.091Z,31.2
2016-05-28T08:47:48.109Z,30.6
2016-05-28T08:48:48.096Z,30.32
2016-05-28T08:49:47.943Z,30.8
2016-05-28T08:50:48.102Z,31.01
2016-05-28T08:51:48.073Z,31.38
2016-05-28T08:52:48.091Z,30.71
2016-05-28T08:53:48.079Z,30.93
2016-05-28T08:54:48.065Z,30.53
2016-05-28T08:55:48.068Z,29.96
2016-05-28T08:56:48.056Z,29.09
2016-05-28T08:57:48.058Z,29.09
2016-05-28T08:58:48.060Z,28.7
2016-05-28T08:59:47.891Z,27.92
2016-05-28T09:00:48.034Z,27.82
2016-05-28T09:01:48.037Z,29
2016-05-28T09:02:48.024Z,29.38
2016-05-28T09:03:48.028Z,28.81
2016-05-28T09:04:48.014Z,30.36
2016-05-28T09:05:48.033Z,30.15
2016-05-28T09:06:48.004Z,30.12
2016-05-28T09:07:47.991Z,32.54
2016-05-28T09:08:47.993Z,32.32
2016-05-28T09:09:47.980Z,34.54
2016-05-28T09:10:47.968Z,35.11
2016-05-28T09:11:47.971Z,36.16
2016-05-28T09:12:47.957Z,36.05
2016-05-28T09:13:47.960Z,36.43
2016-05-28T09:14:47.947Z,37.48
2016-05-28T09:15:47.950Z,39.62
2016-05-28T09:16:47.937Z,39.02
2016-05-28T09:17:47.924Z,38.71
2016-05-28T09:18:47.912Z,40.64
2016-05-28T09:19:47.898Z,41.42
2016-05-28T09:20:47.745Z,41.32
2016-05-28T09:21:47.887Z,42.08
2016-05-28T09:22:47.876Z,41.2
2016-05-28T09:23:47.878Z,43.44
2016-05-28T09:24:47.865Z,44.1
2016-05-28T09:25:47.837Z,45.79
2016-05-28T09:26:47.684Z,44.72
2016-05-28T09:27:47.826Z,44.04
2016-05-28T09:28:47.656Z,43.95
2016-05-28T09:29:47.816Z,44.53
2016-05-28T09:30:47.787Z,44.6
2016-05-28T09:31:47.775Z,45.79
2016-05-28T09:32:47.778Z,45.97
2016-05-28T09:33:47.763Z,46.94
2016-05-28T09:34:47.750Z,48.3
2016-05-28T09:35:47.738Z,47.49
2016-05-28T09:36:47.741Z,47.88
2016-05-28T09:37:47.712Z,46.5
2016-05-28T09:38:47.699Z,46.6
2016-05-28T09:39:47.702Z,46.79
2016-05-28T09:40:47.688Z,47.96
2016-05-28T09:41:47.661Z,47.64
2016-05-28T09:42:47.663Z,48.05
2016-05-28T09:43:47.650Z,49.1
2016-05-28T09:44:47.637Z,49.17
2016-05-28T09:45:47.624Z,48.49
2016-05-28T09:46:47.612Z,48.69
2016-05-28T09:47:47.599Z,49.07
2016-05-28T09:48:47.586Z,49.27
2016-05-28T09:49:47.682Z,51.5
2016-05-28T09:50:47.559Z,51.79
2016-05-28T09:51:49.859Z,51.11
2016-05-28T09:52:47.565Z,49.17
2016-05-28T09:53:47.536Z,50.43
2016-05-28T09:54:47.539Z,50.5
2016-05-28T09:55:47.526Z,51.69
2016-05-28T09:56:47.342Z,52.25
2016-05-28T09:57:47.484Z,54.19
2016-05-28T09:58:47.737Z,54.91
2016-05-28T09:59:47.459Z,54.03
2016-05-28T10:00:47.446Z,52.42
2016-05-28T10:01:50.152Z,51.64
2016-05-28T10:02:47.419Z,50.96
2016-05-28T10:03:47.407Z,53.02
2016-05-28T10:04:47.832Z,51.76
2016-05-28T10:05:47.225Z,51.67
2016-05-28T10:06:50.586Z,51.18
2016-05-28T10:07:47.356Z,51.69
2016-05-28T10:08:47.342Z,50.92
2016-05-28T10:09:47.330Z,50.53
2016-05-28T10:10:47.317Z,50.53
2016-05-28T10:11:47.695Z,50.04
2016-05-28T10:12:47.291Z,50.72
2016-05-28T10:13:47.293Z,50.72
2016-05-28T10:14:47.280Z,51.11
2016-05-28T10:15:47.252Z,51.09
2016-05-28T10:16:47.239Z,52.73
2016-05-28T10:17:47.242Z,51.18
2016-05-28T10:18:47.229Z,50.77
2016-05-28T10:19:47.310Z,51.35
2016-05-28T10:20:47.031Z,50.77
2016-05-28T10:21:49.596Z,51.06
2016-05-28T10:22:47.162Z,50.31
2016-05-28T10:23:47.149Z,50.41
2016-05-28T10:24:47.167Z,51.67
2016-05-28T10:25:47.122Z,50.31
2016-05-28T10:26:51.438Z,50.92
2016-05-28T10:27:47.097Z,51.79
2016-05-28T10:28:47.084Z,51.67
2016-05-28T10:29:47.086Z,51.67
2016-05-28T10:30:47.058Z,51.86
2016-05-28T10:31:47.061Z,51.76
2016-05-28T10:32:47.032Z,52.54
2016-05-28T10:33:47.034Z,51.4
2016-05-28T10:34:47.928Z,51.23
2016-05-28T10:35:46.994Z,50.74
2016-05-28T10:36:46.980Z,51.53
2016-05-28T10:37:46.967Z,50.58
2016-05-28T10:38:46.969Z,49.61
2016-05-28T10:39:46.941Z,47.76
2016-05-28T10:40:46.928Z,47.76
2016-05-28T10:41:46.916Z,46.98
2016-05-28T10:42:46.902Z,47.3
2016-05-28T10:43:46.890Z,47.98
2016-05-28T10:44:46.877Z,45.84
2016-05-28T10:45:46.723Z,47.49
2016-05-28T10:46:46.866Z,47.03
2016-05-28T10:47:46.854Z,47.03
2016-05-28T10:48:46.856Z,47.01
2016-05-28T10:49:46.827Z,47.59
2016-05-28T10:50:47.002Z,47.01
2016-05-28T10:51:46.802Z,47.59
2016-05-28T10:52:46.820Z,48.18
2016-05-28T10:53:46.792Z,47.61
2016-05-28T10:54:46.763Z,47.91
2016-05-28T10:55:47.719Z,47.32
2016-05-28T10:56:46.737Z,47.69
2016-05-28T10:57:46.740Z,45.09
2016-05-28T10:58:46.727Z,46.06
2016-05-28T10:59:46.714Z,45.18
2016-05-28T11:00:46.732Z,45.09
2016-05-28T11:01:46.688Z,44.12
2016-05-28T11:02:46.660Z,44.7
2016-05-28T11:03:46.662Z,44.79
2016-05-28T11:04:46.993Z,45.57
2016-05-28T11:05:46.652Z,44.87
2016-05-28T11:06:46.639Z,45.94
2016-05-28T11:07:46.611Z,46.84
2016-05-28T11:08:46.597Z,46.23
2016-05-28T11:09:46.585Z,45.75
2016-05-28T11:10:46.572Z,46.72
2016-05-28T11:11:46.558Z,46.79
2016-05-28T11:12:46.546Z,46.6
2016-05-28T11:13:46.533Z,46.89
2016-05-28T11:14:46.520Z,46.91
2016-05-28T11:15:46.522Z,46.6
2016-05-28T11:16:46.494Z,45.53
2016-05-28T11:17:46.497Z,45.92
2016-05-28T11:18:46.485Z,45.53
2016-05-28T11:19:46.533Z,46.72
2016-05-28T11:20:46.458Z,46.11
2016-05-28T11:21:46.446Z,46.23
2016-05-28T11:22:46.449Z,46.52
2016-05-28T11:23:46.262Z,44.51
2016-05-28T11:24:46.421Z,44.6
2016-05-28T11:25:46.393Z,45.97
2016-05-28T11:26:46.381Z,45.97
2016-05-28T11:27:46.383Z,45.97
2016-05-28T11:28:46.370Z,45.45
2016-05-28T11:29:46.357Z,44.68
2016-05-28T11:30:46.345Z,45.57
2016-05-28T11:31:46.347Z,46.94
2016-05-28T11:32:46.303Z,45.97
2016-05-28T11:33:46.134Z,45.97
2016-05-28T11:34:46.293Z,45.89
2016-05-28T11:35:46.264Z,43.65
2016-05-28T11:36:46.266Z,42.68
2016-05-28T11:37:46.113Z,42.49
2016-05-28T11:38:46.241Z,42.58
2016-05-28T11:39:46.228Z,42.87
2016-05-28T11:40:46.214Z,43.05
2016-05-28T11:41:46.203Z,43.92
2016-05-28T11:42:46.220Z,44.31
2016-05-28T11:43:46.176Z,43.75
2016-05-28T11:44:46.194Z,44.14
2016-05-28T11:45:46.150Z,45.6
2016-05-28T11:46:46.153Z,46.28
2016-05-28T11:47:46.141Z,47.69
2016-05-28T11:48:46.127Z,46.81
2016-05-28T11:49:45.973Z,45.84
2016-05-28T11:50:46.102Z,45.24
2016-05-28T11:51:46.088Z,46.01
2016-05-28T11:52:46.091Z,46.89
2016-05-28T11:53:46.062Z,48.05
2016-05-28T11:54:46.081Z,48.54
2016-05-28T11:55:46.052Z,49.71
2016-05-28T11:56:46.040Z,48.8
2016-05-28T11:57:46.010Z,49.17
2016-05-28T11:58:45.998Z,48.9
2016-05-28T11:59:46.000Z,48.05
2016-05-28T12:00:45.988Z,48.05
2016-05-28T12:01:45.990Z,47.76
2016-05-28T12:02:45.821Z,47.69
2016-05-28T12:03:45.933Z,48.18
2016-05-28T12:04:45.937Z,47.98
2016-05-28T12:05:45.923Z,47.49
2016-05-28T12:06:45.909Z,47.2
2016-05-28T12:07:45.742Z,47.66
2016-05-28T12:08:45.883Z,47.66
2016-05-28T12:09:45.872Z,47.55
2016-05-28T12:10:45.875Z,48.03
2016-05-28T12:11:45.845Z,48.8
2016-05-28T12:12:45.675Z,49.51
2016-05-28T12:13:45.664Z,49.41
2016-05-28T12:14:45.806Z,49.12
2016-05-28T12:15:45.794Z,48.73
2016-05-28T12:16:45.796Z,47.59
2016-05-28T12:17:45.768Z,46.52
2016-05-28T12:18:45.786Z,47.81
2016-05-28T12:19:45.758Z,46.72
2016-05-28T12:20:45.729Z,47.49
2016-05-28T12:21:45.732Z,47.78
2016-05-28T12:22:45.702Z,49.34
2016-05-28T12:23:45.690Z,48.68
2016-05-28T12:24:45.693Z,47.61
2016-05-28T12:25:45.727Z,46.64
2016-05-28T12:26:45.667Z,47.81
2016-05-28T12:27:45.654Z,47.81
2016-05-28T12:28:45.640Z,47.13
2016-05-28T12:29:45.629Z,46.84
2016-05-28T12:30:45.615Z,46.06
2016-05-28T12:31:45.617Z,44.79
2016-05-28T12:32:45.604Z,45.94
2016-05-28T12:33:45.592Z,49.05
2016-05-28T12:34:45.876Z,49.71
2016-05-28T12:35:45.409Z,47.06
2016-05-28T12:36:45.554Z,47.74
2016-05-28T12:37:45.540Z,47.16
2016-05-28T12:38:45.528Z,47.45
2016-05-28T12:39:45.515Z,47.25
2016-05-28T12:40:45.564Z,47.93
2016-05-28T12:41:45.489Z,47.83
2016-05-28T12:42:45.960Z,47.74
2016-05-28T12:43:45.463Z,47.03
2016-05-28T12:44:45.450Z,47.91
2016-05-28T12:45:45.436Z,47.42
2016-05-28T12:46:45.425Z,48.1
2016-05-28T12:47:47.739Z,45.87
2016-05-28T12:48:45.397Z,47.62
2016-05-28T12:49:45.479Z,47.03
2016-05-28T12:50:45.372Z,47.55
2016-05-28T12:51:45.359Z,49.1
2016-05-28T12:52:45.346Z,45.87
2016-05-28T12:53:45.349Z,44.32
2016-05-28T12:54:45.335Z,45.78
2016-05-28T12:55:45.307Z,46.26